sensor_id;sensor_type;location;lat;lon;timestamp;pressure;altitude;pressure_sealevel;temperature;humidity
50550;BME280;36505;52.512;13.460;2022-11-21T00:01:00;100036.88;;;-1.17;82.31
50550;BME280;36505;52.512;13.460;2022-11-21T00:03:25;100029.81;;;-1.18;82.14
50550;BME280;36505;52.512;13.460;2022-11-21T00:05:51;100027.97;;;-1.18;82.04
50550;BME280;36505;52.512;13.460;2022-11-21T00:08:18;100032.97;;;-1.15;81.14
50550;BME280;36505;52.512;13.460;2022-11-21T00:10:44;100022.69;;;-1.26;81.39
50550;BME280;36505;52.512;13.460;2022-11-21T00:13:15;100021.75;;;-1.18;81.71
50550;BME280;36505;52.512;13.460;2022-11-21T00:15:41;100011.94;;;-1.11;81.92
50550;BME280;36505;52.512;13.460;2022-11-21T00:18:07;100015.53;;;-1.04;81.69
50550;BME280;36505;52.512;13.460;2022-11-21T00:20:33;100016.16;;;-1.02;81.48
50550;BME280;36505;52.512;13.460;2022-11-21T00:23:01;100002.38;;;-0.99;81.25
50550;BME280;36505;52.512;13.460;2022-11-21T00:25:26;100004.69;;;-0.96;81.11
50550;BME280;36505;52.512;13.460;2022-11-21T00:27:52;99996.81;;;-0.98;81.60
50550;BME280;36505;52.512;13.460;2022-11-21T00:30:17;99999.94;;;-0.94;81.25
50550;BME280;36505;52.512;13.460;2022-11-21T00:32:43;99998.56;;;-0.90;81.34
50550;BME280;36505;52.512;13.460;2022-11-21T00:35:08;99994.78;;;-0.96;80.83
50550;BME280;36505;52.512;13.460;2022-11-21T00:37:33;99992.81;;;-1.02;81.03
50550;BME280;36505;52.512;13.460;2022-11-21T00:39:59;99992.81;;;-1.02;81.00
50550;BME280;36505;52.512;13.460;2022-11-21T00:42:25;99982.38;;;-0.97;81.07
50550;BME280;36505;52.512;13.460;2022-11-21T00:44:50;99985.06;;;-0.97;81.23
50550;BME280;36505;52.512;13.460;2022-11-21T00:47:16;99985.41;;;-1.00;81.22
50550;BME280;36505;52.512;13.460;2022-11-21T00:49:41;99984.22;;;-0.97;81.05
50550;BME280;36505;52.512;13.460;2022-11-21T00:52:06;99980.69;;;-0.98;81.06
50550;BME280;36505;52.512;13.460;2022-11-21T00:54:32;99971.78;;;-0.98;81.19
50550;BME280;36505;52.512;13.460;2022-11-21T00:56:57;99983.19;;;-0.96;81.02
50550;BME280;36505;52.512;13.460;2022-11-21T00:59:22;99981.63;;;-1.05;81.10
50550;BME280;36505;52.512;13.460;2022-11-21T01:01:48;99962.84;;;-1.20;81.24
50550;BME280;36505;52.512;13.460;2022-11-21T01:04:13;99974.31;;;-1.11;81.25
50550;BME280;36505;52.512;13.460;2022-11-21T01:06:39;99970.88;;;-1.05;80.95
50550;BME280;36505;52.512;13.460;2022-11-21T01:09:04;99967.44;;;-0.99;81.52
50550;BME280;36505;52.512;13.460;2022-11-21T01:11:30;99959.75;;;-1.02;81.48
50550;BME280;36505;52.512;13.460;2022-11-21T01:13:55;99965.50;;;-1.05;81.63
50550;BME280;36505;52.512;13.460;2022-11-21T01:16:23;99957.44;;;-1.05;81.56
50550;BME280;36505;52.512;13.460;2022-11-21T01:18:49;99954.38;;;-1.02;81.81
50550;BME280;36505;52.512;13.460;2022-11-21T01:21:26;99954.19;;;-1.01;82.29
50550;BME280;36505;52.512;13.460;2022-11-21T01:23:52;99954.19;;;-1.01;82.65
50550;BME280;36505;52.512;13.460;2022-11-21T01:26:20;99960.22;;;-0.99;82.04
50550;BME280;36505;52.512;13.460;2022-11-21T01:28:46;99947.06;;;-1.08;82.42
50550;BME280;36505;52.512;13.460;2022-11-21T01:31:15;99960.56;;;-1.02;82.75
50550;BME280;36505;52.512;13.460;2022-11-21T01:33:41;99959.19;;;-0.98;82.91
50550;BME280;36505;52.512;13.460;2022-11-21T01:38:38;99961.38;;;-0.87;82.61
50550;BME280;36505;52.512;13.460;2022-11-21T01:41:04;99956.00;;;-0.87;82.40
50550;BME280;36505;52.512;13.460;2022-11-21T01:43:30;99956.84;;;-0.86;82.54
50550;BME280;36505;52.512;13.460;2022-11-21T01:46:02;99952.66;;;-0.89;82.26
50550;BME280;36505;52.512;13.460;2022-11-21T01:48:30;99946.50;;;-0.89;82.37
50550;BME280;36505;52.512;13.460;2022-11-21T01:51:01;99939.13;;;-0.81;82.69
50550;BME280;36505;52.512;13.460;2022-11-21T01:53:27;99941.59;;;-1.00;82.92
50550;BME280;36505;52.512;13.460;2022-11-21T01:55:53;99939.66;;;-1.06;83.33
50550;BME280;36505;52.512;13.460;2022-11-21T01:58:19;99930.44;;;-1.18;83.63
50550;BME280;36505;52.512;13.460;2022-11-21T02:00:46;99948.47;;;-1.12;83.31
50550;BME280;36505;52.512;13.460;2022-11-21T02:03:15;99944.78;;;-1.11;83.17
50550;BME280;36505;52.512;13.460;2022-11-21T02:05:41;99951.09;;;-1.19;83.72
50550;BME280;36505;52.512;13.460;2022-11-21T02:08:15;99935.06;;;-1.27;83.99
50550;BME280;36505;52.512;13.460;2022-11-21T02:10:48;99942.28;;;-1.28;84.52
50550;BME280;36505;52.512;13.460;2022-11-21T02:13:18;99933.88;;;-1.25;84.46
50550;BME280;36505;52.512;13.460;2022-11-21T02:15:46;99939.25;;;-1.25;84.09
50550;BME280;36505;52.512;13.460;2022-11-21T02:18:12;99937.31;;;-1.31;83.92
50550;BME280;36505;52.512;13.460;2022-11-21T02:20:39;99950.16;;;-1.26;84.15
50550;BME280;36505;52.512;13.460;2022-11-21T02:23:44;99948.16;;;-1.39;83.87
50550;BME280;36505;52.512;13.460;2022-11-21T02:26:13;99945.81;;;-1.42;84.59
50550;BME280;36505;52.512;13.460;2022-11-21T02:28:38;99941.09;;;-1.40;84.34
50550;BME280;36505;52.512;13.460;2022-11-21T02:31:05;99935.00;;;-1.34;84.57
50550;BME280;36505;52.512;13.460;2022-11-21T02:33:30;99925.25;;;-1.35;84.40
50550;BME280;36505;52.512;13.460;2022-11-21T02:35:59;99922.66;;;-1.28;84.38
50550;BME280;36505;52.512;13.460;2022-11-21T02:38:29;99922.56;;;-1.20;84.23
50550;BME280;36505;52.512;13.460;2022-11-21T02:41:12;99920.69;;;-1.20;84.02
50550;BME280;36505;52.512;13.460;2022-11-21T02:43:44;99910.97;;;-1.21;84.07
50550;BME280;36505;52.512;13.460;2022-11-21T02:46:11;99907.56;;;-1.29;83.78
50550;BME280;36505;52.512;13.460;2022-11-21T02:48:37;99889.44;;;-1.42;84.04
50550;BME280;36505;52.512;13.460;2022-11-21T02:51:03;99896.19;;;-1.31;84.15
50550;BME280;36505;52.512;13.460;2022-11-21T02:53:28;99898.69;;;-1.30;83.61
50550;BME280;36505;52.512;13.460;2022-11-21T02:55:54;99899.78;;;-1.24;83.90
50550;BME280;36505;52.512;13.460;2022-11-21T02:58:19;99900.81;;;-1.25;83.87
50550;BME280;36505;52.512;13.460;2022-11-21T03:00:45;99894.41;;;-1.24;83.89
50550;BME280;36505;52.512;13.460;2022-11-21T03:03:10;99901.06;;;-1.20;83.98
50550;BME280;36505;52.512;13.460;2022-11-21T03:05:37;99892.81;;;-1.18;84.00
50550;BME280;36505;52.512;13.460;2022-11-21T03:08:04;99889.13;;;-1.17;83.70
50550;BME280;36505;52.512;13.460;2022-11-21T03:10:29;99873.75;;;-1.24;83.14
50550;BME280;36505;52.512;13.460;2022-11-21T03:12:55;99882.25;;;-1.20;83.35
50550;BME280;36505;52.512;13.460;2022-11-21T03:15:26;99881.53;;;-1.29;83.78
50550;BME280;36505;52.512;13.460;2022-11-21T03:17:52;99886.06;;;-1.29;83.98
50550;BME280;36505;52.512;13.460;2022-11-21T03:20:18;99874.97;;;-1.26;84.06
50550;BME280;36505;52.512;13.460;2022-11-21T03:22:43;99882.19;;;-1.27;83.88
50550;BME280;36505;52.512;13.460;2022-11-21T03:25:08;99878.56;;;-1.19;83.81
50550;BME280;36505;52.512;13.460;2022-11-21T03:27:34;99878.16;;;-1.16;83.95
50550;BME280;36505;52.512;13.460;2022-11-21T03:29:59;99877.22;;;-1.08;83.80
50550;BME280;36505;52.512;13.460;2022-11-21T03:32:24;99879.78;;;-1.00;83.74
50550;BME280;36505;52.512;13.460;2022-11-21T03:34:50;99885.41;;;-0.95;83.70
50550;BME280;36505;52.512;13.460;2022-11-21T03:37:15;99877.34;;;-0.95;83.82
50550;BME280;36505;52.512;13.460;2022-11-21T03:39:41;99881.69;;;-0.94;83.83
50550;BME280;36505;52.512;13.460;2022-11-21T03:42:06;99884.97;;;-0.99;83.84
50550;BME280;36505;52.512;13.460;2022-11-21T03:44:32;99893.88;;;-0.98;84.15
50550;BME280;36505;52.512;13.460;2022-11-21T03:46:57;99894.53;;;-0.96;83.82
50550;BME280;36505;52.512;13.460;2022-11-21T03:49:23;99895.97;;;-0.94;84.00
50550;BME280;36505;52.512;13.460;2022-11-21T03:51:48;99897.56;;;-0.99;83.92
50550;BME280;36505;52.512;13.460;2022-11-21T03:54:13;99893.03;;;-0.99;84.17
50550;BME280;36505;52.512;13.460;2022-11-21T03:56:39;99900.97;;;-0.91;83.93
50550;BME280;36505;52.512;13.460;2022-11-21T03:59:05;99894.31;;;-0.95;83.86
50550;BME280;36505;52.512;13.460;2022-11-21T04:01:31;99895.59;;;-0.91;84.48
50550;BME280;36505;52.512;13.460;2022-11-21T04:03:57;99900.34;;;-0.93;84.36
50550;BME280;36505;52.512;13.460;2022-11-21T04:06:22;99905.81;;;-1.01;84.42
50550;BME280;36505;52.512;13.460;2022-11-21T04:08:48;99903.53;;;-1.04;84.46
50550;BME280;36505;52.512;13.460;2022-11-21T04:11:14;99915.59;;;-1.14;85.10
50550;BME280;36505;52.512;13.460;2022-11-21T04:13:39;99903.75;;;-1.20;85.45
50550;BME280;36505;52.512;13.460;2022-11-21T04:16:05;99915.22;;;-1.11;85.27
50550;BME280;36505;52.512;13.460;2022-11-21T04:18:32;99910.09;;;-1.06;85.03
50550;BME280;36505;52.512;13.460;2022-11-21T04:20:59;99902.81;;;-1.12;84.56
50550;BME280;36505;52.512;13.460;2022-11-21T04:23:25;99897.19;;;-1.17;84.83
50550;BME280;36505;52.512;13.460;2022-11-21T04:25:51;99906.97;;;-1.10;84.49
50550;BME280;36505;52.512;13.460;2022-11-21T04:28:16;99908.19;;;-1.12;84.26
50550;BME280;36505;52.512;13.460;2022-11-21T04:30:42;99905.75;;;-1.07;84.58
50550;BME280;36505;52.512;13.460;2022-11-21T04:33:07;99908.09;;;-1.19;84.65
50550;BME280;36505;52.512;13.460;2022-11-21T04:35:33;99914.50;;;-1.20;84.89
50550;BME280;36505;52.512;13.460;2022-11-21T04:37:58;99903.56;;;-1.18;84.72
50550;BME280;36505;52.512;13.460;2022-11-21T04:40:23;99902.16;;;-1.14;85.02
50550;BME280;36505;52.512;13.460;2022-11-21T04:42:49;99908.31;;;-0.99;84.67
50550;BME280;36505;52.512;13.460;2022-11-21T04:45:15;99907.19;;;-0.90;84.39
50550;BME280;36505;52.512;13.460;2022-11-21T04:47:44;99897.06;;;-0.88;84.52
50550;BME280;36505;52.512;13.460;2022-11-21T04:50:11;99905.00;;;-0.80;84.19
50550;BME280;36505;52.512;13.460;2022-11-21T04:52:37;99900.72;;;-0.74;84.34
50550;BME280;36505;52.512;13.460;2022-11-21T04:55:04;99906.16;;;-0.68;84.14
50550;BME280;36505;52.512;13.460;2022-11-21T04:57:30;99904.56;;;-0.62;83.80
50550;BME280;36505;52.512;13.460;2022-11-21T04:59:56;99899.63;;;-0.59;83.43
50550;BME280;36505;52.512;13.460;2022-11-21T05:02:22;99903.63;;;-0.55;83.03
50550;BME280;36505;52.512;13.460;2022-11-21T05:04:47;99901.13;;;-0.56;82.93
50550;BME280;36505;52.512;13.460;2022-11-21T05:07:13;99901.34;;;-0.51;83.05
50550;BME280;36505;52.512;13.460;2022-11-21T05:09:38;99899.50;;;-0.51;82.57
50550;BME280;36505;52.512;13.460;2022-11-21T05:12:04;99902.25;;;-0.44;82.46
50550;BME280;36505;52.512;13.460;2022-11-21T05:14:48;99896.50;;;-0.41;82.45
50550;BME280;36505;52.512;13.460;2022-11-21T05:17:13;99902.31;;;-0.37;82.37
50550;BME280;36505;52.512;13.460;2022-11-21T05:19:38;99900.63;;;-0.38;81.85
50550;BME280;36505;52.512;13.460;2022-11-21T05:22:04;99915.16;;;-0.33;81.98
50550;BME280;36505;52.512;13.460;2022-11-21T05:24:29;99907.50;;;-0.36;82.28
50550;BME280;36505;52.512;13.460;2022-11-21T05:26:54;99916.81;;;-0.32;82.59
50550;BME280;36505;52.512;13.460;2022-11-21T05:29:20;99915.63;;;-0.29;82.19
50550;BME280;36505;52.512;13.460;2022-11-21T05:31:45;99902.81;;;-0.27;82.18
50550;BME280;36505;52.512;13.460;2022-11-21T05:34:11;99908.19;;;-0.27;82.25
50550;BME280;36505;52.512;13.460;2022-11-21T05:36:36;99904.44;;;-0.26;81.97
50550;BME280;36505;52.512;13.460;2022-11-21T05:39:02;99912.16;;;-0.23;82.17
50550;BME280;36505;52.512;13.460;2022-11-21T05:41:27;99915.22;;;-0.26;81.79
50550;BME280;36505;52.512;13.460;2022-11-21T05:43:53;99905.09;;;-0.24;81.47
50550;BME280;36505;52.512;13.460;2022-11-21T05:46:20;99909.66;;;-0.25;81.66
50550;BME280;36505;52.512;13.460;2022-11-21T05:48:47;99907.13;;;-0.26;81.86
50550;BME280;36505;52.512;13.460;2022-11-21T05:51:13;99902.41;;;-0.24;81.98
50550;BME280;36505;52.512;13.460;2022-11-21T05:53:39;99893.69;;;-0.26;82.01
50550;BME280;36505;52.512;13.460;2022-11-21T05:56:06;99899.53;;;-0.23;81.76
50550;BME280;36505;52.512;13.460;2022-11-21T05:58:32;99894.75;;;-0.27;81.86
50550;BME280;36505;52.512;13.460;2022-11-21T06:00:58;99885.00;;;-0.28;81.73
50550;BME280;36505;52.512;13.460;2022-11-21T06:03:25;99894.97;;;-0.22;81.79
50550;BME280;36505;52.512;13.460;2022-11-21T06:08:22;99902.88;;;-0.21;81.90
50550;BME280;36505;52.512;13.460;2022-11-21T06:10:47;99913.03;;;-0.16;81.65
50550;BME280;36505;52.512;13.460;2022-11-21T06:13:13;99902.03;;;-0.21;81.54
50550;BME280;36505;52.512;13.460;2022-11-21T06:15:51;99907.00;;;-0.18;81.71
50550;BME280;36505;52.512;13.460;2022-11-21T06:18:17;99907.00;;;-0.18;81.79
50550;BME280;36505;52.512;13.460;2022-11-21T06:20:43;99905.56;;;-0.21;81.86
50550;BME280;36505;52.512;13.460;2022-11-21T06:23:09;99916.09;;;-0.19;81.66
50550;BME280;36505;52.512;13.460;2022-11-21T06:25:35;99907.41;;;-0.21;81.52
50550;BME280;36505;52.512;13.460;2022-11-21T06:28:01;99907.41;;;-0.21;81.97
50550;BME280;36505;52.512;13.460;2022-11-21T06:30:26;99905.34;;;-0.19;82.04
50550;BME280;36505;52.512;13.460;2022-11-21T06:32:51;99907.84;;;-0.18;81.97
50550;BME280;36505;52.512;13.460;2022-11-21T06:35:17;99914.06;;;-0.17;82.15
50550;BME280;36505;52.512;13.460;2022-11-21T06:37:42;99911.19;;;-0.16;82.07
50550;BME280;36505;52.512;13.460;2022-11-21T06:40:08;99916.38;;;-0.14;82.04
50550;BME280;36505;52.512;13.460;2022-11-21T06:42:34;99907.66;;;-0.16;82.16
50550;BME280;36505;52.512;13.460;2022-11-21T06:44:59;99909.19;;;-0.07;82.38
50550;BME280;36505;52.512;13.460;2022-11-21T06:47:24;99912.09;;;-0.02;82.11
50550;BME280;36505;52.512;13.460;2022-11-21T06:49:50;99908.56;;;-0.03;82.09
50550;BME280;36505;52.512;13.460;2022-11-21T06:52:15;99910.44;;;-0.03;82.21
50550;BME280;36505;52.512;13.460;2022-11-21T06:54:41;99917.91;;;0.02;81.96
50550;BME280;36505;52.512;13.460;2022-11-21T06:57:06;99910.88;;;0.00;82.19
50550;BME280;36505;52.512;13.460;2022-11-21T06:59:31;99916.69;;;0.04;82.12
50550;BME280;36505;52.512;13.460;2022-11-21T07:01:57;99926.63;;;0.04;81.70
50550;BME280;36505;52.512;13.460;2022-11-21T07:04:22;99938.22;;;0.04;81.81
50550;BME280;36505;52.512;13.460;2022-11-21T07:06:48;99932.19;;;0.02;81.72
50550;BME280;36505;52.512;13.460;2022-11-21T07:09:13;99925.78;;;0.03;81.79
50550;BME280;36505;52.512;13.460;2022-11-21T07:11:38;99930.81;;;0.06;81.80
50550;BME280;36505;52.512;13.460;2022-11-21T07:14:04;99936.19;;;0.06;81.68
50550;BME280;36505;52.512;13.460;2022-11-21T07:16:29;99938.66;;;0.08;81.27
50550;BME280;36505;52.512;13.460;2022-11-21T07:18:57;99947.38;;;0.10;81.49
50550;BME280;36505;52.512;13.460;2022-11-21T07:21:22;99956.88;;;0.06;81.20
50550;BME280;36505;52.512;13.460;2022-11-21T07:23:47;99945.22;;;-0.02;81.10
50550;BME280;36505;52.512;13.460;2022-11-21T07:26:13;99950.22;;;0.02;81.01
50550;BME280;36505;52.512;13.460;2022-11-21T07:28:38;99951.03;;;0.02;80.92
50550;BME280;36505;52.512;13.460;2022-11-21T07:31:04;99955.81;;;0.00;80.74
50550;BME280;36505;52.512;13.460;2022-11-21T07:33:30;99953.50;;;-0.03;80.96
50550;BME280;36505;52.512;13.460;2022-11-21T07:35:56;99950.09;;;-0.12;80.95
50550;BME280;36505;52.512;13.460;2022-11-21T07:38:22;99959.41;;;-0.14;80.88
50550;BME280;36505;52.512;13.460;2022-11-21T07:40:47;99959.63;;;-0.16;81.08
50550;BME280;36505;52.512;13.460;2022-11-21T07:43:13;99961.84;;;-0.19;81.00
50550;BME280;36505;52.512;13.460;2022-11-21T07:45:38;99977.75;;;-0.24;81.15
50550;BME280;36505;52.512;13.460;2022-11-21T07:48:05;99978.94;;;-0.27;81.28
50550;BME280;36505;52.512;13.460;2022-11-21T07:50:32;99966.13;;;-0.25;81.48
50550;BME280;36505;52.512;13.460;2022-11-21T07:52:59;99977.41;;;-0.15;81.67
50550;BME280;36505;52.512;13.460;2022-11-21T07:55:25;99973.34;;;-0.04;81.67
50550;BME280;36505;52.512;13.460;2022-11-21T07:57:58;99976.75;;;0.05;81.79
50550;BME280;36505;52.512;13.460;2022-11-21T08:00:25;99976.38;;;0.14;81.51
50550;BME280;36505;52.512;13.460;2022-11-21T08:02:51;99979.41;;;0.26;81.34
50550;BME280;36505;52.512;13.460;2022-11-21T08:05:17;99983.16;;;0.31;80.89
50550;BME280;36505;52.512;13.460;2022-11-21T08:07:42;99973.47;;;0.37;80.79
50550;BME280;36505;52.512;13.460;2022-11-21T08:10:07;99988.72;;;0.58;80.29
50550;BME280;36505;52.512;13.460;2022-11-21T08:12:33;99990.41;;;0.65;80.24
50550;BME280;36505;52.512;13.460;2022-11-21T08:14:58;99977.94;;;0.58;79.87
50550;BME280;36505;52.512;13.460;2022-11-21T08:17:27;99983.97;;;0.60;79.52
50550;BME280;36505;52.512;13.460;2022-11-21T08:19:52;99987.31;;;0.68;79.43
50550;BME280;36505;52.512;13.460;2022-11-21T08:22:17;99991.25;;;0.66;79.58
50550;BME280;36505;52.512;13.460;2022-11-21T08:24:43;99979.66;;;0.65;79.16
50550;BME280;36505;52.512;13.460;2022-11-21T08:27:08;99983.34;;;0.64;79.40
50550;BME280;36505;52.512;13.460;2022-11-21T08:29:34;99983.31;;;0.58;79.44
50550;BME280;36505;52.512;13.460;2022-11-21T08:32:00;99989.34;;;0.60;79.59
50550;BME280;36505;52.512;13.460;2022-11-21T08:34:25;99995.34;;;0.62;79.40
50550;BME280;36505;52.512;13.460;2022-11-21T08:36:51;100002.81;;;0.60;79.60
50550;BME280;36505;52.512;13.460;2022-11-21T08:39:17;100005.53;;;0.60;79.71
50550;BME280;36505;52.512;13.460;2022-11-21T08:41:43;100000.50;;;0.57;79.81
50550;BME280;36505;52.512;13.460;2022-11-21T08:44:26;100010.47;;;0.56;79.30
50550;BME280;36505;52.512;13.460;2022-11-21T08:46:53;100008.59;;;0.57;79.51
50550;BME280;36505;52.512;13.460;2022-11-21T08:49:18;100012.31;;;0.56;79.42
50550;BME280;36505;52.512;13.460;2022-11-21T08:51:45;100011.94;;;0.59;79.48
50550;BME280;36505;52.512;13.460;2022-11-21T08:54:13;100018.56;;;0.63;79.76
50550;BME280;36505;52.512;13.460;2022-11-21T08:56:39;100022.97;;;0.70;79.64
50550;BME280;36505;52.512;13.460;2022-11-21T08:59:04;100022.97;;;0.70;79.55
50550;BME280;36505;52.512;13.460;2022-11-21T09:01:29;100023.63;;;0.72;79.63
50550;BME280;36505;52.512;13.460;2022-11-21T09:03:55;100029.81;;;0.66;79.23
50550;BME280;36505;52.512;13.460;2022-11-21T09:06:20;100030.19;;;0.63;79.76
50550;BME280;36505;52.512;13.460;2022-11-21T09:08:46;100028.97;;;0.66;79.59
50550;BME280;36505;52.512;13.460;2022-11-21T09:11:11;100032.31;;;0.68;79.71
50550;BME280;36505;52.512;13.460;2022-11-21T09:13:36;100026.69;;;0.69;79.47
50550;BME280;36505;52.512;13.460;2022-11-21T09:16:02;100031.47;;;0.67;79.19
50550;BME280;36505;52.512;13.460;2022-11-21T09:18:47;100026.47;;;0.64;79.26
50550;BME280;36505;52.512;13.460;2022-11-21T09:21:16;100037.84;;;0.60;78.97
50550;BME280;36505;52.512;13.460;2022-11-21T09:23:42;100040.50;;;0.53;79.30
50550;BME280;36505;52.512;13.460;2022-11-21T09:26:08;100045.25;;;0.51;79.16
50550;BME280;36505;52.512;13.460;2022-11-21T09:28:34;100040.03;;;0.50;79.08
50550;BME280;36505;52.512;13.460;2022-11-21T09:31:03;100045.44;;;0.50;79.08
50550;BME280;36505;52.512;13.460;2022-11-21T09:33:29;100042.13;;;0.48;79.13
50550;BME280;36505;52.512;13.460;2022-11-21T09:35:57;100042.94;;;0.48;78.91
50550;BME280;36505;52.512;13.460;2022-11-21T09:38:22;100046.50;;;0.55;79.02
50550;BME280;36505;52.512;13.460;2022-11-21T09:40:48;100048.16;;;0.56;78.92
50550;BME280;36505;52.512;13.460;2022-11-21T09:46:15;100051.28;;;0.53;78.82
50550;BME280;36505;52.512;13.460;2022-11-21T09:48:45;100053.69;;;0.48;78.84
50550;BME280;36505;52.512;13.460;2022-11-21T09:51:15;100045.16;;;0.38;78.91
50550;BME280;36505;52.512;13.460;2022-11-21T09:56:17;100048.25;;;0.42;79.39
50550;BME280;36505;52.512;13.460;2022-11-21T10:01:40;100046.41;;;0.42;79.10
50550;BME280;36505;52.512;13.460;2022-11-21T10:04:06;100050.97;;;0.42;78.94
50550;BME280;36505;52.512;13.460;2022-11-21T10:06:41;100055.72;;;0.39;78.78
50550;BME280;36505;52.512;13.460;2022-11-21T10:09:23;100060.66;;;0.36;79.16
50550;BME280;36505;52.512;13.460;2022-11-21T10:28:59;100104.47;;;0.23;78.53
50550;BME280;36505;52.512;13.460;2022-11-21T10:31:34;100084.78;;;0.23;78.29
50550;BME280;36505;52.512;13.460;2022-11-21T10:34:02;100082.88;;;0.17;78.08
50550;BME280;36505;52.512;13.460;2022-11-21T10:36:32;100087.66;;;0.21;77.88
50550;BME280;36505;52.512;13.460;2022-11-21T10:39:06;100106.44;;;0.15;78.12
50550;BME280;36505;52.512;13.460;2022-11-21T10:41:56;100101.66;;;0.10;78.01
50550;BME280;36505;52.512;13.460;2022-11-21T10:44:28;100106.44;;;0.15;78.09
50550;BME280;36505;52.512;13.460;2022-11-21T10:49:39;100102.50;;;0.11;77.78
50550;BME280;36505;52.512;13.460;2022-11-21T10:52:13;100111.41;;;0.11;77.68
50550;BME280;36505;52.512;13.460;2022-11-21T10:55:11;100104.72;;;0.07;77.74
50550;BME280;36505;52.512;13.460;2022-11-21T10:57:46;100103.69;;;0.08;77.67
50550;BME280;36505;52.512;13.460;2022-11-21T11:02:42;100117.91;;;0.02;78.05
50550;BME280;36505;52.512;13.460;2022-11-21T11:05:36;100117.91;;;0.02;78.48
50550;BME280;36505;52.512;13.460;2022-11-21T11:10:31;100107.09;;;-0.05;77.35
50550;BME280;36505;52.512;13.460;2022-11-21T11:12:57;100118.50;;;-0.03;77.53
50550;BME280;36505;52.512;13.460;2022-11-21T11:19:04;100115.47;;;0.07;77.24
50550;BME280;36505;52.512;13.460;2022-11-21T11:29:14;100124.22;;;0.09;77.11
50550;BME280;36505;52.512;13.460;2022-11-21T11:31:41;100116.38;;;0.14;77.04
50550;BME280;36505;52.512;13.460;2022-11-21T11:34:11;100116.53;;;0.06;76.44
50550;BME280;36505;52.512;13.460;2022-11-21T11:36:37;100118.38;;;0.06;76.83
50550;BME280;36505;52.512;13.460;2022-11-21T11:48:16;100115.00;;;0.18;76.74
50550;BME280;36505;52.512;13.460;2022-11-21T11:50:52;100117.28;;;0.21;77.03
50550;BME280;36505;52.512;13.460;2022-11-21T11:53:32;100118.13;;;0.22;77.21
50550;BME280;36505;52.512;13.460;2022-11-21T12:04:11;100088.56;;;0.07;77.67
50550;BME280;36505;52.512;13.460;2022-11-21T12:06:51;100115.28;;;0.30;77.43
50550;BME280;36505;52.512;13.460;2022-11-21T12:17:23;100121.25;;;0.47;76.40
50550;BME280;36505;52.512;13.460;2022-11-21T12:19:51;100117.53;;;0.48;76.10
50550;BME280;36505;52.512;13.460;2022-11-21T12:22:18;100118.28;;;0.42;76.34
50550;BME280;36505;52.512;13.460;2022-11-21T12:24:44;100106.00;;;0.32;76.56
50550;BME280;36505;52.512;13.460;2022-11-21T12:27:19;100109.97;;;0.36;76.67
50550;BME280;36505;52.512;13.460;2022-11-21T12:46:07;100091.31;;;0.35;76.13
50550;BME280;36505;52.512;13.460;2022-11-21T12:48:56;100091.59;;;0.40;76.11
50550;BME280;36505;52.512;13.460;2022-11-21T12:57:14;100090.34;;;0.43;75.35
50550;BME280;36505;52.512;13.460;2022-11-21T13:02:37;100098.28;;;0.51;75.23
50550;BME280;36505;52.512;13.460;2022-11-21T13:05:22;100098.28;;;0.51;74.94
50550;BME280;36505;52.512;13.460;2022-11-21T13:07:49;100100.31;;;0.49;74.30
50550;BME280;36505;52.512;13.460;2022-11-21T13:10:17;100096.81;;;0.48;73.99
50550;BME280;36505;52.512;13.460;2022-11-21T13:15:50;100085.34;;;0.39;74.85
50550;BME280;36505;52.512;13.460;2022-11-21T13:18:23;100084.28;;;0.34;74.92
50550;BME280;36505;52.512;13.460;2022-11-21T13:20:51;100086.88;;;0.27;74.72
50550;BME280;36505;52.512;13.460;2022-11-21T13:26:00;100079.66;;;0.28;74.84
50550;BME280;36505;52.512;13.460;2022-11-21T13:28:30;100080.69;;;0.27;75.25
50550;BME280;36505;52.512;13.460;2022-11-21T13:30:57;100080.88;;;0.25;75.50
50550;BME280;36505;52.512;13.460;2022-11-21T13:36:05;100085.38;;;0.18;76.30
50550;BME280;36505;52.512;13.460;2022-11-21T13:46:57;100087.81;;;-0.08;76.42
50550;BME280;36505;52.512;13.460;2022-11-21T13:49:29;100078.06;;;-0.09;76.65
50550;BME280;36505;52.512;13.460;2022-11-21T13:52:03;100066.00;;;-0.13;76.63
50550;BME280;36505;52.512;13.460;2022-11-21T13:57:27;100070.50;;;0.01;76.59
50550;BME280;36505;52.512;13.460;2022-11-21T14:08:18;100074.16;;;-0.07;77.00
50550;BME280;36505;52.512;13.460;2022-11-21T14:10:45;100075.97;;;-0.14;77.29
50550;BME280;36505;52.512;13.460;2022-11-21T14:13:29;100063.53;;;-0.15;77.38
50550;BME280;36505;52.512;13.460;2022-11-21T14:18:41;100062.03;;;-0.17;77.91
50550;BME280;36505;52.512;13.460;2022-11-21T14:21:18;100058.16;;;-0.15;77.62
50550;BME280;36505;52.512;13.460;2022-11-21T14:23:45;100056.28;;;-0.14;77.58
50550;BME280;36505;52.512;13.460;2022-11-21T14:26:15;100055.66;;;-0.16;78.10
50550;BME280;36505;52.512;13.460;2022-11-21T14:28:45;100051.81;;;-0.28;78.00
50550;BME280;36505;52.512;13.460;2022-11-21T14:31:12;100050.44;;;-0.39;78.36
50550;BME280;36505;52.512;13.460;2022-11-21T14:36:07;100039.94;;;-0.55;78.74
50550;BME280;36505;52.512;13.460;2022-11-21T14:38:44;100053.69;;;-0.44;79.46
50550;BME280;36505;52.512;13.460;2022-11-21T14:41:35;100046.69;;;-0.59;78.84
50550;BME280;36505;52.512;13.460;2022-11-21T14:46:34;100033.59;;;-0.84;80.14
50550;BME280;36505;52.512;13.460;2022-11-21T14:51:41;100039.44;;;-0.95;80.79
50550;BME280;36505;52.512;13.460;2022-11-21T14:54:17;100033.34;;;-1.03;81.08
50550;BME280;36505;52.512;13.460;2022-11-21T14:56:46;100031.50;;;-1.03;81.36
50550;BME280;36505;52.512;13.460;2022-11-21T14:59:22;100044.34;;;-0.98;81.69
50550;BME280;36505;52.512;13.460;2022-11-21T15:02:18;100050.47;;;-1.04;80.51
50550;BME280;36505;52.512;13.460;2022-11-21T15:04:42;100054.84;;;-1.03;80.86
50550;BME280;36505;52.512;13.460;2022-11-21T15:07:20;100064.34;;;-1.15;81.23
50550;BME280;36505;52.512;13.460;2022-11-21T15:09:46;100059.28;;;-1.25;81.37
50550;BME280;36505;52.512;13.460;2022-11-21T15:12:14;100061.97;;;-1.25;81.43